Time;durP1;ratioP1;P1;durP2;ratioP2;P2;SDS_P1;SDS_P2;PMS_P1;PMS_P2;Temp;Humidity;BMP_temperature;BMP_pressure;BME280_temperature;BME280_humidity;BME280_pressure;Samples;Min_cycle;Max_cycle;Signal;HPM_P1;HPM_P2
2023/05/23 00:01:02;;;;;;;7.47;5.40;;;16.00;99.90;;;;;;5128346;28;20182;-81
2023/05/23 00:03:30;;;;;;;6.67;5.97;;;16.00;99.90;;;;;;5128791;28;20234;-81
2023/05/23 00:05:55;;;;;;;7.00;5.33;;;16.00;99.90;;;;;;5128784;28;20203;-81
2023/05/23 00:08:21;;;;;;;7.60;6.40;;;16.00;99.90;;;;;;5128674;28;20202;-81
2023/05/23 00:10:47;;;;;;;8.73;5.67;;;16.00;99.90;;;;;;5128480;28;20184;-81
2023/05/23 00:13:13;;;;;;;7.40;6.63;;;16.00;99.90;;;;;;5127702;28;20178;-81
2023/05/23 00:15:40;;;;;;;6.50;5.87;;;16.00;99.90;;;;;;5128440;28;20211;-81
2023/05/23 00:18:07;;;;;;;7.83;5.83;;;16.00;99.90;;;;;;5130303;28;20249;-81
2023/05/23 00:20:35;;;;;;;6.20;5.40;;;15.90;99.90;;;;;;5129148;28;20174;-81
2023/05/23 00:23:02;;;;;;;6.10;5.03;;;16.00;99.90;;;;;;5128632;28;20189;-81
2023/05/23 00:25:32;;;;;;;7.80;4.93;;;16.10;99.90;;;;;;5127913;28;20261;-81
2023/05/23 00:27:59;;;;;;;10.47;4.47;;;16.00;99.90;;;;;;5124833;28;20198;-81
2023/05/23 00:30:25;;;;;;;7.43;4.20;;;15.90;99.90;;;;;;5124900;28;20180;-81
2023/05/23 00:32:53;;;;;;;5.43;4.20;;;15.90;99.90;;;;;;5124966;28;20189;-80
2023/05/23 00:35:19;;;;;;;5.67;4.07;;;15.90;99.90;;;;;;5111091;28;20263;-81
2023/05/23 00:37:45;;;;;;;4.57;3.70;;;15.90;99.90;;;;;;5106178;28;20174;-81
2023/05/23 00:40:10;;;;;;;5.13;3.37;;;15.90;99.90;;;;;;5107394;28;20744;-81
2023/05/23 00:42:36;;;;;;;5.17;3.70;;;16.00;99.90;;;;;;5116220;28;20189;-81
2023/05/23 00:45:02;;;;;;;3.87;3.10;;;15.80;99.90;;;;;;5127398;28;20181;-81
2023/05/23 00:47:28;;;;;;;3.07;2.77;;;15.90;99.90;;;;;;5126364;28;20180;-81
2023/05/23 00:49:53;;;;;;;7.33;3.10;;;16.00;99.90;;;;;;5128750;28;20178;-81
2023/05/23 00:52:19;;;;;;;3.83;3.10;;;15.80;99.90;;;;;;5124398;28;20206;-81
2023/05/23 00:54:45;;;;;;;4.20;3.33;;;15.80;99.90;;;;;;5126176;28;20245;-79
2023/05/23 00:57:11;;;;;;;4.00;3.40;;;15.80;99.90;;;;;;5127166;28;20543;-80
2023/05/23 00:59:37;;;;;;;5.00;3.33;;;15.70;99.90;;;;;;5125170;28;20608;-81
2023/05/23 01:02:02;;;;;;;2.93;2.60;;;15.80;99.90;;;;;;5124019;28;20430;-80
2023/05/23 01:04:28;;;;;;;3.33;3.03;;;15.80;99.90;;;;;;5105029;28;20285;-80
2023/05/23 01:06:55;;;;;;;4.47;3.00;;;15.80;99.90;;;;;;5105303;28;20184;-81
2023/05/23 01:09:22;;;;;;;5.40;3.37;;;15.80;99.90;;;;;;5107541;28;20230;-81
2023/05/23 01:12:00;;;;;;;3.60;2.90;;;15.80;99.90;;;;;;5105737;28;20266;-80
2023/05/23 01:14:41;;;;;;;5.10;3.43;;;15.80;99.90;;;;;;5126431;28;20553;-81
2023/05/23 01:17:23;;;;;;;5.10;3.03;;;15.80;99.90;;;;;;5127133;28;20176;-81
2023/05/23 01:20:03;;;;;;;3.50;3.03;;;15.70;99.90;;;;;;5128609;28;20189;-82
2023/05/23 01:22:36;;;;;;;3.70;3.30;;;15.80;99.90;;;;;;5122548;28;20194;-80
2023/05/23 01:25:37;;;;;;;3.30;3.00;;;15.80;99.90;;;;;;5112536;28;20223;-80
2023/05/23 01:28:06;;;;;;;4.93;2.93;;;15.80;99.90;;;;;;5104301;28;20269;-81
2023/05/23 01:30:35;;;;;;;3.10;2.80;;;15.70;99.90;;;;;;5104579;28;20186;-81
2023/05/23 01:33:01;;;;;;;5.43;3.30;;;15.70;99.90;;;;;;5114442;28;20672;-81
2023/05/23 01:35:27;;;;;;;4.93;3.27;;;15.70;99.90;;;;;;5126870;28;20199;-81
2023/05/23 01:37:54;;;;;;;4.77;3.30;;;15.80;99.90;;;;;;5126796;28;20204;-81
2023/05/23 01:40:20;;;;;;;5.83;2.90;;;15.80;99.90;;;;;;5126088;28;20173;-81
2023/05/23 01:42:46;;;;;;;3.67;3.27;;;15.80;99.90;;;;;;5113814;28;20263;-82
2023/05/23 01:45:12;;;;;;;3.70;3.27;;;15.80;99.90;;;;;;5107796;28;20209;-81
2023/05/23 01:47:40;;;;;;;6.67;3.03;;;15.70;99.90;;;;;;5107794;28;20235;-81
2023/05/23 01:50:08;;;;;;;5.23;3.50;;;15.70;99.90;;;;;;5108438;28;20197;-81
2023/05/23 01:52:34;;;;;;;3.70;3.10;;;15.70;99.90;;;;;;5110879;28;20181;-81
2023/05/23 01:55:00;;;;;;;7.50;3.57;;;15.70;99.90;;;;;;5122913;28;20205;-81
2023/05/23 01:57:29;;;;;;;3.50;3.10;;;15.70;99.90;;;;;;5123935;28;20673;-81
2023/05/23 01:59:55;;;;;;;7.03;3.80;;;15.70;99.90;;;;;;5127366;28;20193;-81
2023/05/23 02:02:21;;;;;;;3.23;2.93;;;15.70;99.90;;;;;;5126310;28;20229;-81
2023/05/23 02:04:48;;;;;;;5.27;3.90;;;15.70;99.90;;;;;;5126829;28;20193;-81
2023/05/23 02:07:13;;;;;;;4.30;3.90;;;15.80;99.90;;;;;;5129639;28;20195;-80
2023/05/23 02:09:39;;;;;;;6.43;3.60;;;15.70;99.90;;;;;;5128964;28;20195;-81
2023/05/23 02:12:05;;;;;;;5.80;4.00;;;15.70;99.90;;;;;;5128151;28;20189;-81
2023/05/23 02:14:30;;;;;;;5.53;3.80;;;15.70;99.90;;;;;;5127165;28;20197;-80
2023/05/23 02:16:56;;;;;;;5.67;4.13;;;15.70;99.90;;;;;;5128671;28;20193;-81
2023/05/23 02:19:21;;;;;;;4.60;3.60;;;15.70;99.90;;;;;;5126500;28;20208;-81
2023/05/23 02:21:47;;;;;;;4.63;3.67;;;15.70;99.90;;;;;;5127233;28;20260;-81
2023/05/23 02:24:12;;;;;;;6.13;3.67;;;15.70;99.90;;;;;;5128328;28;20192;-80
2023/05/23 02:26:38;;;;;;;8.80;4.70;;;15.70;99.90;;;;;;5128620;28;20177;-81
2023/05/23 02:29:04;;;;;;;4.23;3.30;;;15.80;99.90;;;;;;5129099;28;20177;-80
2023/05/23 02:31:30;;;;;;;4.63;3.40;;;15.50;99.90;;;;;;5127739;28;20237;-81
2023/05/23 02:33:55;;;;;;;8.53;4.27;;;15.70;99.90;;;;;;5126847;28;20174;-80
2023/05/23 02:36:21;;;;;;;4.73;3.00;;;15.60;99.90;;;;;;5126786;28;20299;-81
2023/05/23 02:38:47;;;;;;;6.50;4.27;;;15.60;99.90;;;;;;5127204;28;20212;-81
2023/05/23 02:41:12;;;;;;;5.07;3.40;;;15.60;99.90;;;;;;5128515;28;20174;-80
2023/05/23 02:43:38;;;;;;;5.43;3.63;;;15.60;99.90;;;;;;5113081;28;20182;-81
2023/05/23 02:46:03;;;;;;;6.73;3.60;;;15.60;99.90;;;;;;5109400;28;20281;-81
2023/05/23 02:48:29;;;;;;;5.37;3.30;;;15.60;99.90;;;;;;5109380;28;20177;-81
2023/05/23 02:50:55;;;;;;;7.50;3.87;;;15.60;99.90;;;;;;5111255;28;20177;-81
2023/05/23 02:53:21;;;;;;;6.17;3.53;;;15.70;99.90;;;;;;5110592;28;20197;-81
2023/05/23 02:55:46;;;;;;;6.53;3.93;;;15.70;99.90;;;;;;5111166;28;20202;-81
2023/05/23 02:58:12;;;;;;;4.33;3.40;;;15.60;99.90;;;;;;5107424;28;20213;-81
2023/05/23 03:00:38;;;;;;;5.70;4.30;;;15.60;99.90;;;;;;5107533;28;20174;-81
2023/05/23 03:03:03;;;;;;;7.10;4.53;;;15.60;99.90;;;;;;5107284;28;20178;-80
2023/05/23 03:05:29;;;;;;;7.47;4.97;;;15.60;99.90;;;;;;5107856;28;20205;-81
2023/05/23 03:07:55;;;;;;;8.83;4.90;;;15.60;99.90;;;;;;5109366;28;20174;-80
2023/05/23 03:10:20;;;;;;;7.00;4.47;;;15.60;99.90;;;;;;5110100;28;20173;-81
2023/05/23 03:12:46;;;;;;;9.77;5.20;;;15.60;99.90;;;;;;5116983;28;20660;-82
2023/05/23 03:15:11;;;;;;;9.77;5.33;;;15.60;99.90;;;;;;5132073;28;20197;-81
2023/05/23 03:17:37;;;;;;;10.33;5.07;;;15.50;99.90;;;;;;5129843;28;20522;-81
2023/05/23 03:20:04;;;;;;;7.50;5.00;;;15.50;99.90;;;;;;5125324;28;20205;-80
2023/05/23 03:22:30;;;;;;;7.40;4.57;;;15.50;99.90;;;;;;5125892;28;20192;-81
2023/05/23 03:24:55;;;;;;;10.10;4.47;;;15.60;99.90;;;;;;5126503;28;20185;-81
2023/05/23 03:27:21;;;;;;;14.10;4.37;;;15.50;99.90;;;;;;5126204;28;20260;-81
2023/05/23 03:29:47;;;;;;;7.53;3.90;;;15.50;99.90;;;;;;5126575;28;20207;-81
2023/05/23 03:32:12;;;;;;;4.30;3.80;;;15.50;99.90;;;;;;5126174;28;20174;-81
2023/05/23 03:34:38;;;;;;;5.10;3.47;;;15.50;99.90;;;;;;5124674;28;20302;-81
2023/05/23 03:37:04;;;;;;;6.43;3.73;;;15.50;99.90;;;;;;5125308;28;20212;-81
2023/05/23 03:39:30;;;;;;;5.80;3.23;;;15.50;99.90;;;;;;5124346;28;20296;-81
2023/05/23 03:41:55;;;;;;;6.73;3.40;;;15.50;99.90;;;;;;5127230;27;20161;-81
2023/05/23 03:44:21;;;;;;;6.10;3.90;;;15.40;99.90;;;;;;5127158;28;20248;-81
2023/05/23 03:46:46;;;;;;;6.47;3.97;;;15.40;99.90;;;;;;5125294;28;20170;-81
2023/05/23 03:49:12;;;;;;;10.23;3.70;;;15.40;99.90;;;;;;5126139;28;20627;-81
2023/05/23 03:51:37;;;;;;;5.93;4.17;;;15.30;99.90;;;;;;5125991;28;20177;-81
2023/05/23 03:54:03;;;;;;;6.00;3.73;;;15.40;99.90;;;;;;5128943;28;20233;-82
2023/05/23 03:56:28;;;;;;;5.80;3.70;;;15.40;99.90;;;;;;5128079;28;20190;-80
2023/05/23 03:58:54;;;;;;;4.17;3.40;;;15.40;99.90;;;;;;5123523;28;20215;-81
2023/05/23 04:01:19;;;;;;;9.10;4.00;;;15.30;99.90;;;;;;5125723;28;20201;-81
2023/05/23 04:03:46;;;;;;;5.63;4.10;;;15.30;99.90;;;;;;5125444;28;20176;-81
2023/05/23 04:06:12;;;;;;;7.80;3.70;;;15.30;99.90;;;;;;5124113;28;20194;-81
2023/05/23 04:08:40;;;;;;;9.60;4.13;;;15.30;99.90;;;;;;5125348;28;20192;-81
2023/05/23 04:11:06;;;;;;;6.60;4.27;;;15.30;99.90;;;;;;5122387;28;20233;-81
2023/05/23 04:13:32;;;;;;;4.03;3.10;;;15.30;99.90;;;;;;5125067;28;20236;-81
2023/05/23 04:16:00;;;;;;;8.77;4.87;;;15.30;99.90;;;;;;5123633;28;20194;-81
2023/05/23 04:18:27;;;;;;;7.07;4.30;;;15.40;99.90;;;;;;5109955;28;20296;-81
2023/05/23 04:20:53;;;;;;;7.10;4.57;;;15.40;99.90;;;;;;5101688;28;20591;-80
2023/05/23 04:23:18;;;;;;;8.40;4.30;;;15.30;99.90;;;;;;5102654;28;20328;-80
2023/05/23 04:25:44;;;;;;;9.27;4.60;;;15.30;99.90;;;;;;5100136;28;20200;-81
2023/05/23 04:28:11;;;;;;;8.00;4.60;;;15.20;99.90;;;;;;5103743;28;20186;-81
2023/05/23 04:30:37;;;;;;;7.60;4.60;;;15.30;99.90;;;;;;5103004;28;20577;-81
2023/05/23 04:33:03;;;;;;;8.23;4.73;;;15.20;99.90;;;;;;5099172;28;20243;-81
2023/05/23 04:35:28;;;;;;;13.00;4.97;;;15.30;99.90;;;;;;5099406;28;20198;-80
2023/05/23 04:37:57;;;;;;;9.97;5.57;;;15.30;99.90;;;;;;5102970;28;20174;-80
2023/05/23 04:40:25;;;;;;;8.43;4.47;;;15.20;99.90;;;;;;5099448;28;20643;-80
2023/05/23 04:42:51;;;;;;;9.17;4.67;;;15.30;99.90;;;;;;5115488;28;20189;-80
2023/05/23 04:45:18;;;;;;;11.03;5.40;;;15.30;99.90;;;;;;5118641;28;20555;-80
2023/05/23 04:47:44;;;;;;;8.83;5.70;;;15.30;99.90;;;;;;5118649;28;20173;-80
2023/05/23 04:50:13;;;;;;;7.40;4.93;;;15.30;99.90;;;;;;5119882;28;20183;-80
2023/05/23 04:52:39;;;;;;;6.60;4.93;;;15.30;99.90;;;;;;5113925;28;20269;-80
2023/05/23 04:55:07;;;;;;;10.83;5.50;;;15.30;99.90;;;;;;5098523;28;20214;-80
2023/05/23 04:57:33;;;;;;;7.50;5.57;;;15.30;99.90;;;;;;5100641;28;20190;-80
2023/05/23 04:59:59;;;;;;;10.37;5.57;;;15.30;99.90;;;;;;5098308;28;20202;-80
2023/05/23 05:02:26;;;;;;;8.87;5.50;;;15.30;99.90;;;;;;5097783;28;20272;-80
2023/05/23 05:04:52;;;;;;;6.90;5.20;;;15.20;99.90;;;;;;5098208;28;20231;-80
2023/05/23 05:07:17;;;;;;;11.50;5.37;;;15.30;99.90;;;;;;5099506;28;20174;-80
2023/05/23 05:09:43;;;;;;;10.10;5.33;;;15.30;99.90;;;;;;5099868;28;20182;-79
2023/05/23 05:12:08;;;;;;;9.63;5.43;;;15.20;99.90;;;;;;5100685;28;20253;-80
2023/05/23 05:14:34;;;;;;;10.77;5.90;;;15.20;99.90;;;;;;5106866;28;20627;-81
2023/05/23 05:17:01;;;;;;;8.93;5.47;;;15.20;99.90;;;;;;5098910;28;20186;-81
2023/05/23 05:19:26;;;;;;;9.67;5.30;;;15.20;99.90;;;;;;5107256;28;20193;-80
2023/05/23 05:21:52;;;;;;;7.90;5.70;;;15.20;99.90;;;;;;5105335;28;20197;-80
2023/05/23 05:24:19;;;;;;;10.50;6.23;;;15.20;99.90;;;;;;5114954;28;20263;-81
2023/05/23 05:26:46;;;;;;;10.37;6.17;;;15.20;99.90;;;;;;5099303;28;20186;-82
2023/05/23 05:29:12;;;;;;;9.97;6.77;;;15.20;99.90;;;;;;5094909;28;20569;-81
2023/05/23 05:31:37;;;;;;;8.10;6.20;;;15.20;99.90;;;;;;5095798;28;20239;-81
2023/05/23 05:34:03;;;;;;;9.60;6.13;;;15.30;99.90;;;;;;5095427;28;20174;-80
2023/05/23 05:36:28;;;;;;;8.33;5.77;;;15.30;99.90;;;;;;5094075;28;20274;-80
2023/05/23 05:38:54;;;;;;;10.10;5.77;;;15.20;99.90;;;;;;5093931;28;20190;-80
2023/05/23 05:41:21;;;;;;;10.60;6.30;;;15.20;99.90;;;;;;5100130;28;20207;-81
2023/05/23 05:43:46;;;;;;;9.80;6.70;;;15.20;99.90;;;;;;5096325;28;20600;-79
2023/05/23 05:46:12;;;;;;;9.03;6.73;;;15.20;99.90;;;;;;5104551;28;20247;-80
2023/05/23 05:48:37;;;;;;;9.17;6.67;;;15.30;99.90;;;;;;5115833;28;20178;-80
2023/05/23 05:51:03;;;;;;;10.83;6.90;;;15.20;99.90;;;;;;5117844;28;20639;-80
2023/05/23 05:53:28;;;;;;;10.73;5.93;;;15.20;99.90;;;;;;5116438;28;20203;-80
2023/05/23 05:55:54;;;;;;;8.23;6.20;;;15.20;99.90;;;;;;5117337;28;20716;-80
2023/05/23 05:58:20;;;;;;;7.93;5.37;;;15.20;99.90;;;;;;5118146;28;20193;-80
2023/05/23 06:00:47;;;;;;;9.10;5.67;;;15.20;99.90;;;;;;5117296;28;20228;-81
2023/05/23 06:03:14;;;;;;;9.17;5.33;;;15.20;99.90;;;;;;5116617;28;20169;-80
2023/05/23 06:05:40;;;;;;;9.80;5.30;;;15.20;99.90;;;;;;5116052;28;20193;-80
2023/05/23 06:08:06;;;;;;;12.80;6.37;;;15.20;99.90;;;;;;5118269;28;20189;-80
2023/05/23 06:10:32;;;;;;;9.47;6.00;;;15.10;99.90;;;;;;5115925;28;20239;-80
2023/05/23 06:12:58;;;;;;;11.37;6.20;;;15.30;99.90;;;;;;5115179;28;20177;-80
2023/05/23 06:15:24;;;;;;;9.40;6.10;;;15.10;99.90;;;;;;5115659;28;20201;-80
2023/05/23 06:17:50;;;;;;;10.40;5.70;;;15.20;99.90;;;;;;5115412;28;20646;-80
2023/05/23 06:20:16;;;;;;;7.67;5.03;;;15.20;99.90;;;;;;5116556;28;20224;-81
2023/05/23 06:22:41;;;;;;;8.33;5.40;;;15.20;99.90;;;;;;5114905;28;20197;-80
2023/05/23 06:25:07;;;;;;;9.13;5.37;;;15.20;99.90;;;;;;5115263;28;20651;-80
2023/05/23 06:27:32;;;;;;;7.97;5.87;;;15.20;99.90;;;;;;5115819;28;20170;-80
2023/05/23 06:29:58;;;;;;;7.00;5.30;;;15.20;99.90;;;;;;5117787;28;20495;-80
2023/05/23 06:32:23;;;;;;;10.03;5.70;;;15.20;99.90;;;;;;5114881;28;20204;-80
2023/05/23 06:34:49;;;;;;;9.77;5.77;;;15.10;99.90;;;;;;5114784;28;20197;-80
2023/05/23 06:37:15;;;;;;;8.13;5.20;;;15.20;99.90;;;;;;5114126;28;20170;-80
2023/05/23 06:39:40;;;;;;;9.37;5.97;;;15.30;99.90;;;;;;5114503;28;20622;-80
2023/05/23 06:42:06;;;;;;;8.07;5.30;;;15.30;99.90;;;;;;5116583;28;20540;-79
2023/05/23 06:44:32;;;;;;;9.93;5.60;;;15.30;99.90;;;;;;5116579;28;20194;-80
2023/05/23 06:46:57;;;;;;;9.53;5.27;;;15.30;99.90;;;;;;5118913;28;20180;-80
2023/05/23 06:49:24;;;;;;;15.80;6.00;;;15.20;99.90;;;;;;5120019;28;20615;-80
2023/05/23 06:51:50;;;;;;;12.03;5.57;;;15.20;99.90;;;;;;5120518;28;20250;-80
2023/05/23 06:54:16;;;;;;;12.80;6.47;;;15.20;99.90;;;;;;5120149;28;20222;-80
2023/05/23 06:56:41;;;;;;;11.30;6.80;;;15.30;99.90;;;;;;5121156;28;20177;-80
2023/05/23 06:59:07;;;;;;;11.47;6.07;;;15.30;99.90;;;;;;5119681;28;20284;-80
2023/05/23 07:01:32;;;;;;;11.70;6.47;;;15.20;99.90;;;;;;5120733;28;20174;-80
2023/05/23 07:03:58;;;;;;;12.37;6.50;;;15.30;99.90;;;;;;5120918;28;20169;-80
2023/05/23 07:06:24;;;;;;;10.77;6.60;;;15.20;99.90;;;;;;5121344;28;20198;-80
2023/05/23 07:08:50;;;;;;;12.00;6.17;;;15.20;99.90;;;;;;5120964;28;20242;-80
2023/05/23 07:11:15;;;;;;;12.00;6.00;;;15.20;99.90;;;;;;5118636;28;20177;-79
2023/05/23 07:13:41;;;;;;;10.40;5.17;;;15.20;99.90;;;;;;5120546;28;20208;-80
2023/05/23 07:16:06;;;;;;;8.80;5.13;;;15.30;99.90;;;;;;5120010;28;20197;-80
2023/05/23 07:18:32;;;;;;;10.33;5.50;;;15.20;99.90;;;;;;5120131;28;20571;-80
2023/05/23 07:20:57;;;;;;;11.53;5.23;;;15.20;99.90;;;;;;5120754;28;20630;-80
2023/05/23 07:23:24;;;;;;;11.70;5.70;;;15.10;99.90;;;;;;5117909;28;20189;-80
2023/05/23 07:25:50;;;;;;;10.80;5.73;;;15.30;99.90;;;;;;5119096;28;20543;-80
2023/05/23 07:28:15;;;;;;;9.80;5.40;;;15.30;99.90;;;;;;5118585;28;20178;-79
2023/05/23 07:30:41;;;;;;;7.27;5.10;;;15.30;99.90;;;;;;5118223;28;20658;-80
2023/05/23 07:33:07;;;;;;;8.00;5.90;;;15.20;69.90;;;;;;5119602;28;20177;-80
2023/05/23 07:35:33;;;;;;;8.43;5.00;;;15.30;99.90;;;;;;5119085;28;20208;-81
2023/05/23 07:37:58;;;;;;;10.03;5.23;;;15.20;99.90;;;;;;5119896;28;20578;-80
2023/05/23 07:40:24;;;;;;;8.87;5.47;;;15.30;99.90;;;;;;5120070;28;20177;-80
2023/05/23 07:42:52;;;;;;;14.90;5.67;;;15.30;99.90;;;;;;5119474;28;20226;-80
2023/05/23 07:45:17;;;;;;;11.40;5.67;;;15.30;99.90;;;;;;5120228;28;20177;-80
2023/05/23 07:47:43;;;;;;;11.97;6.43;;;15.30;99.90;;;;;;5117874;28;20169;-80
2023/05/23 07:50:08;;;;;;;10.90;5.47;;;15.30;99.90;;;;;;5118760;28;20627;-80
2023/05/23 07:52:35;;;;;;;11.07;5.73;;;15.20;99.90;;;;;;5118736;28;20531;-80
2023/05/23 07:55:00;;;;;;;12.20;5.50;;;15.20;99.90;;;;;;5118981;28;20190;-81
2023/05/23 07:57:26;;;;;;;9.30;5.40;;;15.20;99.90;;;;;;5117839;28;20199;-80
2023/05/23 07:59:52;;;;;;;14.10;5.70;;;15.20;99.90;;;;;;5120043;28;20276;-80
2023/05/23 08:02:19;;;;;;;12.60;6.33;;;15.10;98.10;;;;;;5117611;28;20180;-80
2023/05/23 08:04:46;;;;;;;12.57;6.13;;;15.00;99.90;;;;;;5118878;28;20238;-80
2023/05/23 08:07:12;;;;;;;11.47;5.90;;;15.00;99.90;;;;;;5119222;28;20607;-80
2023/05/23 08:09:41;;;;;;;12.40;5.13;;;14.90;99.90;;;;;;5121287;28;20173;-80
2023/05/23 08:12:08;;;;;;;12.37;5.97;;;14.80;99.90;;;;;;5117654;28;20548;-80
2023/05/23 08:14:34;;;;;;;8.83;5.67;;;14.80;99.90;;;;;;5120831;28;20670;-81
2023/05/23 08:17:01;;;;;;;13.33;5.60;;;14.80;99.90;;;;;;5120307;28;20185;-80
2023/05/23 08:19:26;;;;;;;14.80;5.83;;;14.80;99.90;;;;;;5119276;28;20204;-80
2023/05/23 08:21:52;;;;;;;10.57;5.33;;;14.70;99.90;;;;;;5120580;28;20233;-80
2023/05/23 08:24:19;;;;;;;12.60;5.80;;;14.70;99.90;;;;;;5120113;28;20187;-80
2023/05/23 08:26:45;;;;;;;10.40;5.27;;;14.60;99.90;;;;;;5121382;28;20169;-80
2023/05/23 08:29:10;;;;;;;14.90;6.37;;;14.70;99.90;;;;;;5120642;28;20173;-80
2023/05/23 08:31:36;;;;;;;10.07;5.27;;;14.50;99.90;;;;;;5117809;28;20252;-80
2023/05/23 08:34:01;;;;;;;16.70;5.97;;;14.50;99.90;;;;;;5117321;28;20177;-80
2023/05/23 08:36:27;;;;;;;11.33;5.77;;;14.50;99.90;;;;;;5118766;28;20194;-80
2023/05/23 08:38:52;;;;;;;16.83;7.00;;;14.40;99.90;;;;;;5118373;28;20615;-80
2023/05/23 08:41:19;;;;;;;13.67;7.13;;;14.30;99.90;;;;;;5117774;28;20696;-79
2023/05/23 08:43:46;;;;;;;16.83;7.07;;;14.20;99.90;;;;;;5116701;28;20169;-79
2023/05/23 08:46:13;;;;;;;12.73;6.67;;;14.20;99.90;;;;;;5117778;28;20201;-80
2023/05/23 08:48:40;;;;;;;19.37;7.37;;;14.20;99.90;;;;;;5119899;28;20326;-80
2023/05/23 08:51:08;;;;;;;15.60;7.07;;;14.20;99.90;;;;;;5119312;28;20174;-79
2023/05/23 08:53:36;;;;;;;16.77;7.07;;;14.20;99.90;;;;;;5118723;28;20185;-80
2023/05/23 08:56:02;;;;;;;13.73;6.30;;;14.40;99.90;;;;;;5119098;28;20193;-79
2023/05/23 08:58:33;;;;;;;16.53;7.07;;;14.30;99.90;;;;;;5119497;28;20272;-80
2023/05/23 09:00:59;;;;;;;13.93;7.03;;;14.20;99.90;;;;;;5118780;28;20173;-79
2023/05/23 09:03:27;;;;;;;18.13;7.87;;;14.20;99.90;;;;;;5117095;28;20166;-79
2023/05/23 09:05:56;;;;;;;22.13;8.17;;;14.30;99.90;;;;;;5116984;28;20633;-80
2023/05/23 09:08:23;;;;;;;16.43;7.53;;;14.30;99.90;;;;;;5116113;28;20689;-80
2023/05/23 09:10:49;;;;;;;11.30;6.80;;;14.10;99.90;;;;;;5117015;28;20169;-80
2023/05/23 09:13:22;;;;;;;13.07;8.23;;;14.20;99.90;;;;;;5116583;28;20173;-79
2023/05/23 09:16:06;;;;;;;15.13;8.63;;;14.20;99.90;;;;;;5117285;28;20268;-79
2023/05/23 09:18:41;;;;;;;26.97;7.87;;;14.20;99.90;;;;;;5116551;28;20201;-80
2023/05/23 09:21:08;;;;;;;10.67;5.97;;;14.10;99.90;;;;;;5114947;28;20250;-80
2023/05/23 09:23:35;;;;;;;13.97;6.10;;;14.20;99.90;;;;;;5114910;28;20181;-79
2023/05/23 09:26:03;;;;;;;13.70;5.90;;;14.10;99.90;;;;;;5117016;28;20212;-79
2023/05/23 09:28:30;;;;;;;13.83;5.60;;;14.10;84.80;;;;;;5117705;28;20169;-80
2023/05/23 09:30:59;;;;;;;11.63;5.63;;;14.10;10.60;;;;;;5114479;28;20174;-80
2023/05/23 09:33:49;;;;;;;10.73;6.17;;;14.30;71.80;;;;;;5116634;28;20239;-80
2023/05/23 09:36:15;;;;;;;16.20;5.47;;;14.20;1.00;;;;;;5104593;28;20208;-80
2023/05/23 09:38:43;;;;;;;11.67;5.17;;;14.20;1.00;;;;;;5114961;28;20209;-80
2023/05/23 09:41:11;;;;;;;16.60;8.20;;;14.20;7.60;;;;;;5116583;28;20655;-79
2023/05/23 09:43:52;;;;;;;17.73;7.10;;;14.20;15.00;;;;;;5114958;28;20193;-79
2023/05/23 09:46:20;;;;;;;11.73;6.67;;;14.10;48.40;;;;;;5116315;28;20197;-80
2023/05/23 09:48:47;;;;;;;12.63;6.77;;;14.10;6.80;;;;;;5116320;28;20166;-79
2023/05/23 09:51:13;;;;;;;10.70;6.07;;;14.10;71.80;;;;;;5114960;28;20201;-80
2023/05/23 09:53:39;;;;;;;14.10;5.60;;;14.10;96.70;;;;;;5116771;28;20217;-79
2023/05/23 09:56:10;;;;;;;16.67;5.67;;;14.00;56.30;;;;;;5115661;28;20197;-80
2023/05/23 09:58:37;;;;;;;13.40;6.13;;;14.00;38.80;;;;;;5117226;28;20196;-81
2023/05/23 10:01:08;;;;;;;10.67;5.70;;;13.90;40.30;;;;;;5118127;28;20193;-80
2023/05/23 10:03:47;;;;;;;20.63;6.57;;;13.80;32.80;;;;;;5115234;28;20201;-80
2023/05/23 10:06:28;;;;;;;12.87;5.80;;;13.80;92.30;;;;;;5115221;28;20189;-80
2023/05/23 10:08:55;;;;;;;11.83;6.70;;;13.90;99.90;;;;;;5116989;28;20248;-80
2023/05/23 10:11:33;;;;;;;14.67;6.77;;;13.80;99.90;;;;;;5117902;28;20177;-80
2023/05/23 10:14:01;;;;;;;11.67;6.63;;;13.80;55.90;;;;;;5115905;28;20169;-79
2023/05/23 10:16:46;;;;;;;9.57;6.30;;;13.80;1.00;;;;;;5116185;28;20204;-80
2023/05/23 10:19:31;;;;;;;9.93;5.10;;;13.80;1.00;;;;;;5117811;28;20235;-80
2023/05/23 10:21:59;;;;;;;15.97;5.10;;;13.80;1.00;;;;;;5119003;28;20272;-79
2023/05/23 10:24:28;;;;;;;8.60;4.70;;;13.90;1.00;;;;;;5118826;28;20534;-80
2023/05/23 10:26:54;;;;;;;8.77;4.50;;;14.00;1.00;;;;;;5121436;27;20588;-79
2023/05/23 10:29:23;;;;;;;10.13;4.20;;;14.20;1.00;;;;;;5119374;28;20197;-79
2023/05/23 10:31:51;;;;;;;8.93;5.03;;;14.30;1.00;;;;;;5121278;28;20166;-79
2023/05/23 10:34:40;;;;;;;9.53;4.13;;;14.50;1.00;;;;;;5121904;28;20284;-81
2023/05/23 10:37:09;;;;;;;8.13;3.93;;;14.60;1.00;;;;;;5121733;28;20169;-80
2023/05/23 10:40:05;;;;;;;8.73;3.90;;;14.70;1.00;;;;;;5120841;28;20201;-80
2023/05/23 10:42:34;;;;;;;9.77;4.33;;;15.00;1.00;;;;;;5120892;28;20184;-79
2023/05/23 10:45:18;;;;;;;8.37;4.00;;;15.10;1.00;;;;;;5119094;28;20193;-80
2023/05/23 10:47:51;;;;;;;7.87;4.30;;;15.10;99.90;;;;;;5119209;28;20370;-79
2023/05/23 10:50:35;;;;;;;7.87;4.07;;;15.20;99.90;;;;;;5118143;28;20188;-81
2023/05/23 10:53:02;;;;;;;9.53;4.50;;;15.20;1.00;;;;;;5119090;28;20157;-79
2023/05/23 10:55:35;;;;;;;13.13;4.40;;;15.20;1.00;;;;;;5118694;27;20275;-79
2023/05/23 10:58:15;;;;;;;10.80;5.00;;;15.20;1.00;;;;;;5119956;28;20170;-79
2023/05/23 11:00:55;;;;;;;14.63;5.30;;;15.10;1.00;;;;;;5118319;28;20176;-80
2023/05/23 11:03:45;;;;;;;8.27;4.20;;;15.20;1.00;;;;;;5118906;28;20519;-80
2023/05/23 11:06:43;;;;;;;11.00;4.60;;;15.20;99.90;;;;;;5119589;28;20225;-79
2023/05/23 11:09:20;;;;;;;13.07;5.27;;;15.20;1.00;;;;;;5121223;28;20169;-79
2023/05/23 11:12:06;;;;;;;17.47;5.60;;;15.10;1.00;;;;;;5120976;28;20165;-80
2023/05/23 11:14:33;;;;;;;13.47;4.57;;;15.00;1.00;;;;;;5119735;28;20185;-80
2023/05/23 11:17:29;;;;;;;10.10;4.60;;;15.00;1.00;;;;;;5120607;28;20249;-80
2023/05/23 11:20:01;;;;;;;11.80;4.17;;;15.00;1.00;;;;;;5121977;27;20572;-80
2023/05/23 11:22:28;;;;;;;8.13;4.17;;;15.00;1.00;;;;;;5121969;28;20193;-80
2023/05/23 11:24:55;;;;;;;7.10;3.80;;;15.00;1.00;;;;;;5119199;28;20280;-79
2023/05/23 11:27:36;;;;;;;7.23;3.73;;;15.00;99.90;;;;;;5119447;28;20222;-80
2023/05/23 11:30:13;;;;;;;6.57;3.60;;;15.00;99.90;;;;;;5117490;28;20611;-80
2023/05/23 11:32:40;;;;;;;5.83;3.30;;;15.00;99.90;;;;;;5119569;28;20204;-80
2023/05/23 11:35:07;;;;;;;9.03;3.97;;;15.10;99.90;;;;;;5118180;28;20204;-80
2023/05/23 11:37:33;;;;;;;7.80;3.53;;;15.10;99.90;;;;;;5117945;28;20173;-80
2023/05/23 11:40:19;;;;;;;7.57;3.47;;;15.20;99.90;;;;;;5120905;28;20626;-80
2023/05/23 11:42:45;;;;;;;14.47;3.87;;;15.10;99.90;;;;;;5119144;28;20664;-80
2023/05/23 11:45:10;;;;;;;9.67;3.33;;;15.00;99.90;;;;;;5118974;28;20273;-80
2023/05/23 11:47:40;;;;;;;8.17;3.20;;;15.00;99.90;;;;;;5120930;28;20184;-80
2023/05/23 11:50:06;;;;;;;8.80;3.30;;;15.00;99.90;;;;;;5120684;28;20188;-80
2023/05/23 11:52:32;;;;;;;11.10;4.03;;;15.00;99.90;;;;;;5118221;28;20181;-79
2023/05/23 11:55:00;;;;;;;10.17;3.33;;;15.10;99.90;;;;;;5117620;28;20229;-79
2023/05/23 11:57:26;;;;;;;8.73;3.50;;;15.10;99.90;;;;;;5116470;28;20592;-80
2023/05/23 11:59:52;;;;;;;11.90;3.70;;;15.20;99.90;;;;;;5117873;28;20211;-79
2023/05/23 12:02:18;;;;;;;8.37;3.50;;;15.30;99.90;;;;;;5116103;28;20174;-79
2023/05/23 12:04:44;;;;;;;7.87;3.27;;;15.40;99.90;;;;;;5118552;28;20193;-78
2023/05/23 12:07:10;;;;;;;14.20;3.60;;;15.50;99.90;;;;;;5115995;28;20187;-79
2023/05/23 12:09:45;;;;;;;8.80;3.47;;;15.50;99.90;;;;;;5116101;28;20281;-79
2023/05/23 12:12:11;;;;;;;11.50;3.57;;;15.80;99.90;;;;;;5115590;28;20173;-79
2023/05/23 12:14:43;;;;;;;8.07;3.60;;;15.80;99.90;;;;;;5116159;28;20190;-79
2023/05/23 12:17:12;;;;;;;12.53;3.83;;;15.90;99.90;;;;;;5118323;28;20584;-79
2023/05/23 12:19:38;;;;;;;8.30;3.40;;;15.90;99.90;;;;;;5118662;28;20280;-80
2023/05/23 12:22:10;;;;;;;12.57;3.50;;;16.10;99.90;;;;;;5106848;28;20201;-79
2023/05/23 12:24:43;;;;;;;7.50;3.00;;;16.50;99.90;;;;;;5099179;28;20731;-80
2023/05/23 12:27:09;;;;;;;8.67;3.20;;;16.60;1.00;;;;;;5101562;28;20169;-79
2023/05/23 12:29:36;;;;;;;15.63;3.63;;;16.50;5.50;;;;;;5113149;28;20229;-80
2023/05/23 12:32:03;;;;;;;12.23;3.50;;;16.50;1.00;;;;;;5106145;28;20173;-80
2023/05/23 12:34:28;;;;;;;11.03;3.40;;;16.40;1.00;;;;;;5116677;28;20184;-79
2023/05/23 12:36:58;;;;;;;11.53;3.87;;;16.40;16.60;;;;;;5105658;28;20253;-79
2023/05/23 12:39:26;;;;;;;10.50;3.70;;;16.30;1.00;;;;;;5095367;28;20281;-79
2023/05/23 12:41:51;;;;;;;7.40;2.90;;;16.50;75.40;;;;;;5094295;28;20305;-80
2023/05/23 12:44:17;;;;;;;10.00;3.03;;;16.60;62.00;;;;;;5094224;28;20623;-79
2023/05/23 12:46:43;;;;;;;13.20;3.50;;;16.70;53.00;;;;;;5108889;28;20287;-80